Time;durP1;ratioP1;P1;durP2;ratioP2;P2;SDS_P1;SDS_P2;PMS_P1;PMS_P2;Temp;Humidity;BMP_temperature;BMP_pressure;BME280_temperature;BME280_humidity;BME280_pressure;Samples;Min_cycle;Max_cycle;Signal;HPM_P1;HPM_P2
2023/05/09 00:00:12;;;;;;;;;;;;;;;;;;5114953;27;20484;-71
2023/05/09 00:02:39;;;;;;;35.90;23.13;;;;;;;;;;5114374;27;20298;-72
2023/05/09 00:05:06;;;;;;;36.45;22.05;;;;;;;;;;5115259;27;20072;-72
2023/05/09 00:07:33;;;;;;;32.10;21.42;;;;;;;;;;5148772;27;20112;-69
2023/05/09 00:09:59;;;;;;;33.03;22.25;;;;;;;;;;5135116;27;20086;-70
2023/05/09 00:12:27;;;;;;;34.80;22.33;;;;;;;;;;5134612;27;20057;-70
2023/05/09 00:14:55;;;;;;;34.58;21.95;;;;;;;;;;5118237;27;20419;-70
2023/05/09 00:17:22;;;;;;;32.92;21.50;;;;;;;;;;5114130;27;20767;-69
2023/05/09 00:19:49;;;;;;;29.80;21.05;;;;;;;;;;5114097;27;20051;-70
2023/05/09 00:22:16;;;;;;;26.38;18.10;;;;;;;;;;5132313;27;20051;-70
2023/05/09 00:24:42;;;;;;;24.10;17.00;;;;;;;;;;5115667;27;20051;-70
2023/05/09 00:27:09;;;;;;;27.33;19.15;;;;;;;;;;5113707;27;20092;-70
2023/05/09 00:29:35;;;;;;;28.08;18.90;;;;;;;;;;5111496;27;20091;-69
2023/05/09 00:32:01;;;;;;;28.92;19.83;;;;;;;;;;5134055;27;20665;-70
2023/05/09 00:34:27;;;;;;;;;;;;;;;;;;5134823;27;20042;-70
2023/05/09 00:36:54;;;;;;;29.55;19.85;;;;;;;;;;5117921;27;20432;-70
2023/05/09 00:39:20;;;;;;;;;;;;;;;;;;5094454;28;20044;-69
2023/05/09 00:41:46;;;;;;;31.02;20.33;;;;;;;;;;5110497;28;19980;-69
2023/05/09 00:44:12;;;;;;;;;;;;;;;;;;5094174;28;20043;-70
2023/05/09 00:46:39;;;;;;;25.35;17.30;;;;;;;;;;5108453;27;19919;-70
2023/05/09 00:49:05;;;;;;;25.65;16.65;;;;;;;;;;5113197;27;20051;-69
2023/05/09 00:51:31;;;;;;;27.92;18.75;;;;;;;;;;5117691;27;20050;-70
2023/05/09 00:53:58;;;;;;;28.67;19.27;;;;;;;;;;5117302;27;20138;-70
2023/05/09 00:56:24;;;;;;;29.13;19.70;;;;;;;;;;5117038;27;20142;-69
2023/05/09 00:58:51;;;;;;;29.40;19.85;;;;;;;;;;5117752;27;20148;-70
2023/05/09 01:01:17;;;;;;;29.95;19.88;;;;;;;;;;5113745;27;20496;-70
2023/05/09 01:03:43;;;;;;;;;;;;;;;;;;5113903;27;20090;-71
2023/05/09 01:06:09;;;;;;;28.33;18.55;;;;;;;;;;5131299;27;19923;-70
2023/05/09 01:08:54;;;;;;;30.77;20.42;;;;;;;;;;5113116;27;20500;-69
2023/05/09 01:11:40;;;;;;;29.08;19.88;;;;;;;;;;5113344;27;20055;-69
2023/05/09 01:14:15;;;;;;;30.52;20.50;;;;;;;;;;5123353;27;20249;-69
2023/05/09 01:16:43;;;;;;;33.25;20.67;;;;;;;;;;5152074;27;20052;-70
2023/05/09 01:19:22;;;;;;;30.55;20.50;;;;;;;;;;5119460;27;20051;-70
2023/05/09 01:21:48;;;;;;;34.83;21.60;;;;;;;;;;5137517;27;20051;-72
2023/05/09 01:24:33;;;;;;;33.17;21.63;;;;;;;;;;5134327;27;20129;-70
2023/05/09 01:27:05;;;;;;;37.15;22.02;;;;;;;;;;5132802;27;20129;-69
2023/05/09 01:29:45;;;;;;;34.08;21.23;;;;;;;;;;5120536;27;20147;-69
2023/05/09 01:32:19;;;;;;;29.55;20.73;;;;;;;;;;5111978;27;20055;-70
2023/05/09 01:34:47;;;;;;;29.65;18.92;;;;;;;;;;5092844;28;20056;-70
2023/05/09 01:37:15;;;;;;;33.00;20.45;;;;;;;;;;5092288;28;20142;-70
2023/05/09 01:39:44;;;;;;;25.50;17.92;;;;;;;;;;5093181;28;20523;-70
2023/05/09 01:42:11;;;;;;;27.75;18.42;;;;;;;;;;5091777;28;20662;-70
2023/05/09 01:44:38;;;;;;;28.45;19.25;;;;;;;;;;5111116;28;20047;-69
2023/05/09 01:47:06;;;;;;;30.65;19.00;;;;;;;;;;5112546;27;20053;-70
2023/05/09 01:49:34;;;;;;;30.40;19.65;;;;;;;;;;5133463;27;20061;-70
2023/05/09 01:52:03;;;;;;;29.45;19.48;;;;;;;;;;5142276;27;20043;-69
2023/05/09 01:54:30;;;;;;;27.58;18.83;;;;;;;;;;5113329;28;20125;-69
2023/05/09 01:56:56;;;;;;;26.45;18.08;;;;;;;;;;5111786;28;20051;-69
2023/05/09 01:59:23;;;;;;;26.85;17.75;;;;;;;;;;5113120;28;20043;-69
2023/05/09 02:01:53;;;;;;;24.98;16.73;;;;;;;;;;5111159;27;20121;-70
2023/05/09 02:04:20;;;;;;;27.02;17.33;;;;;;;;;;5129748;27;20411;-69
2023/05/09 02:06:49;;;;;;;25.83;17.50;;;;;;;;;;5112284;27;20054;-69
2023/05/09 02:09:15;;;;;;;27.48;18.10;;;;;;;;;;5120598;27;20050;-70
2023/05/09 02:11:41;;;;;;;28.42;18.15;;;;;;;;;;5111860;28;20053;-70
2023/05/09 02:14:07;;;;;;;;;;;;;;;;;;5112919;28;20050;-70
2023/05/09 02:16:34;;;;;;;23.17;16.02;;;;;;;;;;5095761;28;20013;-70
2023/05/09 02:19:00;;;;;;;25.00;16.00;;;;;;;;;;5112059;28;20495;-69
2023/05/09 02:21:26;;;;;;;;;;;;;;;;;;5095886;28;20059;-69
2023/05/09 02:23:53;;;;;;;25.30;16.27;;;;;;;;;;5127844;27;20287;-71
2023/05/09 02:26:19;;;;;;;24.73;16.20;;;;;;;;;;5133182;27;20058;-70
2023/05/09 02:28:46;;;;;;;22.55;15.20;;;;;;;;;;5113357;27;20050;-69
2023/05/09 02:31:13;;;;;;;25.58;15.65;;;;;;;;;;5115708;27;20404;-69
2023/05/09 02:33:41;;;;;;;23.45;14.50;;;;;;;;;;5116275;27;20051;-70
2023/05/09 02:36:08;;;;;;;22.08;15.23;;;;;;;;;;5115655;27;20492;-70
2023/05/09 02:38:34;;;;;;;21.80;14.77;;;;;;;;;;5136846;27;20115;-69
2023/05/09 02:41:00;;;;;;;22.65;14.02;;;;;;;;;;5155000;27;20590;-69
2023/05/09 02:43:26;;;;;;;;;;;;;;;;;;5136669;27;20054;-70
2023/05/09 02:45:52;;;;;;;23.35;14.70;;;;;;;;;;5129900;27;20019;-70
2023/05/09 02:48:18;;;;;;;;;;;;;;;;;;5099089;27;20046;-69
2023/05/09 02:50:45;;;;;;;24.48;14.88;;;;;;;;;;5130683;27;20284;-69
2023/05/09 02:53:11;;;;;;;;;;;;;;;;;;5127741;27;20499;-70
2023/05/09 02:55:37;;;;;;;21.48;14.10;;;;;;;;;;5116613;27;19927;-69
2023/05/09 02:58:03;;;;;;;;;;;;;;;;;;5133987;27;20132;-70
2023/05/09 03:00:29;;;;;;;23.13;15.20;;;;;;;;;;5136792;27;20013;-69
2023/05/09 03:02:55;;;;;;;;;;;;;;;;;;5136686;27;20051;-69
2023/05/09 03:05:21;;;;;;;24.08;14.32;;;;;;;;;;5136036;27;19919;-69
2023/05/09 03:07:48;;;;;;;23.80;15.18;;;;;;;;;;5120788;27;20047;-69
2023/05/09 03:10:14;;;;;;;23.70;15.70;;;;;;;;;;5115835;27;20121;-69
2023/05/09 03:12:42;;;;;;;;;;;;;;;;;;5133661;27;20043;-69
2023/05/09 03:15:08;;;;;;;25.15;15.30;;;;;;;;;;5115264;27;19919;-70
2023/05/09 03:17:35;;;;;;;25.92;16.05;;;;;;;;;;5112508;27;20086;-70
2023/05/09 03:20:00;;;;;;;;;;;;;;;;;;5136815;27;20082;-72
2023/05/09 03:22:27;;;;;;;24.08;16.13;;;;;;;;;;5128020;27;19965;-70
2023/05/09 03:24:53;;;;;;;;;;;;;;;;;;5101996;27;20453;-70
2023/05/09 03:27:19;;;;;;;24.42;15.95;;;;;;;;;;5132239;27;20414;-70
2023/05/09 03:29:45;;;;;;;25.13;15.88;;;;;;;;;;5099015;27;20082;-69
2023/05/09 03:32:11;;;;;;;25.02;16.38;;;;;;;;;;5114130;27;20058;-70
2023/05/09 03:34:37;;;;;;;;;;;;;;;;;;5116159;27;20049;-69
2023/05/09 03:37:03;;;;;;;25.15;16.10;;;;;;;;;;5123593;27;20010;-72
2023/05/09 03:39:29;;;;;;;;;;;;;;;;;;5132951;27;20087;-69
2023/05/09 03:41:55;;;;;;;26.73;16.17;;;;;;;;;;5132937;27;20651;-70
2023/05/09 03:44:21;;;;;;;;;;;;;;;;;;5098481;27;20051;-69
2023/05/09 03:46:47;;;;;;;29.85;17.17;;;;;;;;;;5133752;27;19944;-69
2023/05/09 03:49:14;;;;;;;;;;;;;;;;;;5111405;28;20138;-69
2023/05/09 03:51:40;;;;;;;30.60;16.80;;;;;;;;;;5112348;28;19927;-69
2023/05/09 03:54:06;;;;;;;25.30;17.10;;;;;;;;;;5078024;28;20500;-72
2023/05/09 03:56:32;;;;;;;;;;;;;;;;;;5111696;28;20062;-71
2023/05/09 03:58:58;;;;;;;32.80;18.85;;;;;;;;;;5094504;28;20426;-69
2023/05/09 04:01:24;;;;;;;;;;;;;;;;;;5102043;27;20046;-70
2023/05/09 04:03:51;;;;;;;27.85;17.45;;;;;;;;;;5139340;27;19966;-71
2023/05/09 04:06:17;;;;;;;29.88;18.05;;;;;;;;;;5132778;27;20051;-71
2023/05/09 04:08:43;;;;;;;29.33;18.38;;;;;;;;;;5098092;27;20138;-70
2023/05/09 04:11:09;;;;;;;29.77;18.58;;;;;;;;;;5114643;27;20129;-72
2023/05/09 04:13:35;;;;;;;;;;;;;;;;;;5114367;27;20094;-70
2023/05/09 04:16:01;;;;;;;26.23;17.77;;;;;;;;;;5097844;27;19955;-70
2023/05/09 04:18:28;;;;;;;27.77;18.40;;;;;;;;;;5131694;27;20584;-70
2023/05/09 04:20:54;;;;;;;;;;;;;;;;;;5114655;27;20035;-70
2023/05/09 04:23:20;;;;;;;29.85;18.33;;;;;;;;;;5114260;27;19981;-70
2023/05/09 04:25:46;;;;;;;;;;;;;;;;;;5114948;27;20051;-70
2023/05/09 04:28:12;;;;;;;30.13;18.17;;;;;;;;;;5099271;27;19919;-71
2023/05/09 04:30:38;;;;;;;;;;;;;;;;;;5135417;27;20058;-70
2023/05/09 04:33:04;;;;;;;31.17;20.70;;;;;;;;;;5134739;27;19944;-70
2023/05/09 04:35:30;;;;;;;;;;;;;;;;;;5119727;27;20751;-71
2023/05/09 04:37:56;;;;;;;32.53;19.58;;;;;;;;;;5114339;27;20037;-71
2023/05/09 04:40:22;;;;;;;;;;;;;;;;;;5114240;27;20043;-70
2023/05/09 04:42:48;;;;;;;36.72;20.38;;;;;;;;;;5131326;27;19946;-70
2023/05/09 04:45:14;;;;;;;;;;;;;;;;;;5097304;27;20050;-70
2023/05/09 04:47:40;;;;;;;32.10;20.75;;;;;;;;;;5113727;27;19972;-70
2023/05/09 04:50:07;;;;;;;;;;;;;;;;;;5114475;27;20503;-72
2023/05/09 04:52:33;;;;;;;36.23;21.90;;;;;;;;;;5114679;27;20013;-71
2023/05/09 04:55:02;;;;;;;33.15;21.20;;;;;;;;;;5133508;27;20427;-70
2023/05/09 04:57:28;;;;;;;;;;;;;;;;;;5113121;27;20051;-70
2023/05/09 04:59:54;;;;;;;36.90;22.60;;;;;;;;;;5113522;27;20014;-71
2023/05/09 05:02:21;;;;;;;;;;;;;;;;;;5093906;28;20079;-70
2023/05/09 05:04:47;;;;;;;34.25;21.60;;;;;;;;;;5092928;28;20527;-70
2023/05/09 05:07:13;;;;;;;;;;;;;;;;;;5092553;28;20097;-73
2023/05/09 05:09:39;;;;;;;35.47;22.95;;;;;;;;;;5113780;27;19919;-71
2023/05/09 05:12:06;;;;;;;35.95;22.33;;;;;;;;;;5095594;27;20055;-73
2023/05/09 05:14:32;;;;;;;36.70;22.73;;;;;;;;;;5114467;27;20050;-70
2023/05/09 05:16:58;;;;;;;35.25;22.42;;;;;;;;;;5150626;27;20129;-71
2023/05/09 05:19:24;;;;;;;;;;;;;;;;;;5116597;27;20487;-70
2023/05/09 05:21:50;;;;;;;34.08;21.48;;;;;;;;;;5133735;27;19929;-70
2023/05/09 05:24:16;;;;;;;;;;;;;;;;;;5118954;27;20061;-72
2023/05/09 05:26:42;;;;;;;34.78;21.63;;;;;;;;;;5112657;27;19923;-70
2023/05/09 05:29:08;;;;;;;;;;;;;;;;;;5114095;27;20043;-70
2023/05/09 05:31:35;;;;;;;37.35;21.40;;;;;;;;;;5112438;27;19984;-70
2023/05/09 05:34:01;;;;;;;36.60;22.30;;;;;;;;;;5113070;27;20058;-70
2023/05/09 05:36:27;;;;;;;;;;;;;;;;;;5116533;27;20043;-71
2023/05/09 05:38:53;;;;;;;36.13;23.02;;;;;;;;;;5133426;27;19925;-71
2023/05/09 05:41:19;;;;;;;;;;;;;;;;;;5112978;27;20075;-71
2023/05/09 05:43:45;;;;;;;38.23;23.57;;;;;;;;;;5112772;28;19941;-70
2023/05/09 05:46:11;;;;;;;;;;;;;;;;;;5113934;28;20130;-71
2023/05/09 05:48:37;;;;;;;34.95;22.70;;;;;;;;;;5111921;28;19915;-70
2023/05/09 05:51:03;;;;;;;;;;;;;;;;;;5113871;27;20142;-70
2023/05/09 05:53:30;;;;;;;39.08;22.38;;;;;;;;;;5151562;27;20006;-70
2023/05/09 05:55:56;;;;;;;;;;;;;;;;;;5126947;28;20035;-70
2023/05/09 05:58:23;;;;;;;36.13;22.08;;;;;;;;;;5131566;27;20344;-70
2023/05/09 06:00:50;;;;;;;38.60;22.88;;;;;;;;;;5133606;27;20068;-71
2023/05/09 06:03:16;;;;;;;36.78;23.58;;;;;;;;;;5136079;27;20059;-70
2023/05/09 06:05:46;;;;;;;;;;;;;;;;;;5137692;27;20057;-70
2023/05/09 06:08:12;;;;;;;34.88;22.35;;;;;;;;;;5137615;27;19926;-70
2023/05/09 06:10:38;;;;;;;;;;;;;;;;;;5117440;27;20157;-70
2023/05/09 06:13:04;;;;;;;35.25;22.58;;;;;;;;;;5116047;27;19919;-70
2023/05/09 06:15:30;;;;;;;;;;;;;;;;;;5123164;27;20035;-72
2023/05/09 06:17:56;;;;;;;43.92;23.83;;;;;;;;;;5116064;27;20351;-72
2023/05/09 06:20:22;;;;;;;;;;;;;;;;;;5116681;27;20099;-80
2023/05/09 06:22:48;;;;;;;35.60;22.65;;;;;;;;;;5112682;27;20006;-72
2023/05/09 06:25:14;;;;;;;;;;;;;;;;;;5138063;27;20137;-73
2023/05/09 06:27:41;;;;;;;37.03;23.05;;;;;;;;;;5127688;27;19930;-70
2023/05/09 06:30:07;;;;;;;36.83;23.45;;;;;;;;;;5120576;27;20050;-74
2023/05/09 06:32:33;;;;;;;36.45;23.00;;;;;;;;;;5136116;27;20057;-72
2023/05/09 06:35:00;;;;;;;;;;;;;;;;;;5137826;27;20129;-72
2023/05/09 06:37:26;;;;;;;35.45;21.58;;;;;;;;;;5136216;27;20360;-73
2023/05/09 06:39:52;;;;;;;;;;;;;;;;;;5126264;27;20058;-72
2023/05/09 06:42:18;;;;;;;35.65;22.10;;;;;;;;;;5136263;27;19926;-72
2023/05/09 06:44:44;;;;;;;;;;;;;;;;;;5137259;27;20219;-72
2023/05/09 06:47:10;;;;;;;35.60;23.15;;;;;;;;;;5136270;27;20384;-72
2023/05/09 06:49:36;;;;;;;;;;;;;;;;;;5117656;27;20050;-72
2023/05/09 06:52:02;;;;;;;34.53;21.50;;;;;;;;;;5115868;27;20276;-72
2023/05/09 06:54:28;;;;;;;;;;;;;;;;;;5116545;27;20539;-72
2023/05/09 06:56:54;;;;;;;36.95;22.02;;;;;;;;;;5115548;27;20033;-72
2023/05/09 06:59:20;;;;;;;;;;;;;;;;;;5136601;27;20133;-72
2023/05/09 07:01:46;;;;;;;36.05;22.17;;;;;;;;;;5133198;27;19977;-74
2023/05/09 07:04:12;;;;;;;;;;;;;;;;;;5102637;27;20065;-72
2023/05/09 07:06:38;;;;;;;33.30;22.00;;;;;;;;;;5115539;27;19920;-72
2023/05/09 07:09:04;;;;;;;;;;;;;;;;;;5116291;27;20064;-72
2023/05/09 07:11:34;;;;;;;34.03;22.27;;;;;;;;;;5133372;27;19981;-73
2023/05/09 07:14:01;;;;;;;38.85;23.80;;;;;;;;;;5133148;27;20086;-74
2023/05/09 07:16:28;;;;;;;;;;;;;;;;;;5099340;27;20055;-78
2023/05/09 07:18:54;;;;;;;40.63;23.52;;;;;;;;;;5115198;27;19927;-73
2023/05/09 07:21:20;;;;;;;36.35;23.83;;;;;;;;;;5115327;27;20118;-74
2023/05/09 07:23:46;;;;;;;;;;;;;;;;;;5122461;27;20209;-73
2023/05/09 07:26:12;;;;;;;34.90;22.67;;;;;;;;;;5126716;27;20339;-71
2023/05/09 07:28:38;;;;;;;;;;;;;;;;;;5131575;27;20172;-72
2023/05/09 07:31:05;;;;;;;38.08;24.25;;;;;;;;;;5142451;27;20002;-71
2023/05/09 07:33:31;;;;;;;38.20;23.60;;;;;;;;;;5131651;27;20583;-71
2023/05/09 07:36:00;;;;;;;39.05;24.70;;;;;;;;;;5114388;27;20097;-72
2023/05/09 07:38:26;;;;;;;40.90;23.67;;;;;;;;;;5105128;27;20051;-72
2023/05/09 07:40:52;;;;;;;;;;;;;;;;;;5132924;27;20088;-73
2023/05/09 07:43:19;;;;;;;40.95;24.10;;;;;;;;;;5114586;27;19929;-71
2023/05/09 07:45:45;;;;;;;39.20;23.02;;;;;;;;;;5121151;27;20121;-73
2023/05/09 07:48:12;;;;;;;37.80;23.85;;;;;;;;;;5132192;27;20118;-71
2023/05/09 07:50:38;;;;;;;38.40;24.10;;;;;;;;;;5131830;27;20110;-71
2023/05/09 07:53:04;;;;;;;38.58;23.55;;;;;;;;;;5132716;27;20047;-71
2023/05/09 07:55:30;;;;;;;38.33;24.27;;;;;;;;;;5097046;27;20078;-76
2023/05/09 07:57:56;;;;;;;;;;;;;;;;;;5113812;27;20083;-71
2023/05/09 08:00:23;;;;;;;39.83;24.38;;;;;;;;;;5131220;27;20409;-71
2023/05/09 08:02:50;;;;;;;37.33;22.27;;;;;;;;;;5113368;27;20062;-72
2023/05/09 08:05:16;;;;;;;38.35;24.35;;;;;;;;;;5137469;27;20515;-73
2023/05/09 08:07:42;;;;;;;40.65;24.42;;;;;;;;;;5113166;27;20126;-71
2023/05/09 08:10:08;;;;;;;;;;;;;;;;;;5113799;27;20047;-71
2023/05/09 08:12:34;;;;;;;38.90;24.08;;;;;;;;;;5127882;27;19929;-80
2023/05/09 08:15:00;;;;;;;42.90;25.38;;;;;;;;;;5109993;28;20404;-72
2023/05/09 08:17:26;;;;;;;;;;;;;;;;;;5132222;27;20051;-72
2023/05/09 08:19:53;;;;;;;41.30;24.20;;;;;;;;;;5114099;27;20030;-75
2023/05/09 08:22:19;;;;;;;;;;;;;;;;;;5114368;27;20039;-72
2023/05/09 08:24:45;;;;;;;42.75;24.70;;;;;;;;;;5114529;27;20360;-72
2023/05/09 08:27:14;;;;;;;45.53;24.95;;;;;;;;;;5133892;27;20493;-73
2023/05/09 08:29:40;;;;;;;46.97;25.52;;;;;;;;;;5113918;27;20055;-71
2023/05/09 08:32:07;;;;;;;49.60;26.85;;;;;;;;;;5113853;27;20100;-74
2023/05/09 08:34:33;;;;;;;51.33;26.88;;;;;;;;;;5132414;27;20050;-73
2023/05/09 08:37:00;;;;;;;47.53;25.70;;;;;;;;;;5131211;27;20080;-71
2023/05/09 08:39:26;;;;;;;47.55;26.05;;;;;;;;;;5114258;27;20082;-70
2023/05/09 08:41:52;;;;;;;;;;;;;;;;;;5111217;27;20078;-77
2023/05/09 08:44:21;;;;;;;46.33;25.63;;;;;;;;;;5112544;27;19962;-72
2023/05/09 08:46:49;;;;;;;46.80;26.35;;;;;;;;;;5113645;27;20511;-72
2023/05/09 08:49:15;;;;;;;44.08;26.05;;;;;;;;;;5113515;27;20054;-71
2023/05/09 08:51:42;;;;;;;43.75;25.17;;;;;;;;;;5112668;27;20078;-73
2023/05/09 08:54:08;;;;;;;43.10;24.40;;;;;;;;;;5113490;27;20122;-71
2023/05/09 08:56:34;;;;;;;45.58;25.13;;;;;;;;;;5131663;27;20043;-71
2023/05/09 08:59:00;;;;;;;46.22;25.42;;;;;;;;;;5113267;27;20043;-72
2023/05/09 09:01:26;;;;;;;;;;;;;;;;;;5114306;27;20890;-71
2023/05/09 09:03:53;;;;;;;43.92;24.08;;;;;;;;;;5122010;27;20026;-70
2023/05/09 09:06:20;;;;;;;46.10;24.52;;;;;;;;;;5129683;27;20101;-73
2023/05/09 09:08:47;;;;;;;51.70;27.10;;;;;;;;;;5113048;27;20039;-71
2023/05/09 09:11:14;;;;;;;47.60;26.38;;;;;;;;;;5131673;27;20083;-71
2023/05/09 09:13:40;;;;;;;43.13;23.88;;;;;;;;;;5130279;27;20067;-73
2023/05/09 09:16:14;;;;;;;44.03;25.23;;;;;;;;;;5131107;27;20062;-71
2023/05/09 09:18:40;;;;;;;39.92;23.63;;;;;;;;;;5112548;27;20049;-74
2023/05/09 09:21:09;;;;;;;44.13;25.25;;;;;;;;;;5112711;27;20178;-71
2023/05/09 09:23:36;;;;;;;43.45;24.92;;;;;;;;;;5109612;27;20397;-71
2023/05/09 09:26:03;;;;;;;47.65;24.23;;;;;;;;;;5128682;27;20126;-71
2023/05/09 09:28:30;;;;;;;45.95;25.70;;;;;;;;;;5112258;27;20099;-71
2023/05/09 09:30:56;;;;;;;42.92;24.90;;;;;;;;;;5130923;27;20043;-72
2023/05/09 09:33:23;;;;;;;41.00;24.70;;;;;;;;;;5130583;27;20099;-70
2023/05/09 09:35:50;;;;;;;40.85;24.88;;;;;;;;;;5111942;27;20092;-71
2023/05/09 09:38:23;;;;;;;40.85;24.58;;;;;;;;;;5110119;27;20047;-72
2023/05/09 09:40:56;;;;;;;42.47;25.05;;;;;;;;;;5121052;27;20133;-72
2023/05/09 09:43:29;;;;;;;41.75;23.98;;;;;;;;;;5127863;27;20484;-72
2023/05/09 09:45:56;;;;;;;43.05;26.77;;;;;;;;;;5129984;27;20087;-72
2023/05/09 09:48:26;;;;;;;42.75;26.52;;;;;;;;;;5130108;27;20090;-73
2023/05/09 09:50:58;;;;;;;52.95;27.45;;;;;;;;;;5129529;27;20429;-69
2023/05/09 09:53:29;;;;;;;49.80;25.92;;;;;;;;;;5130334;27;20565;-71
2023/05/09 09:55:55;;;;;;;47.33;26.35;;;;;;;;;;5128698;27;20053;-72
2023/05/09 09:58:23;;;;;;;47.88;27.63;;;;;;;;;;5129215;27;20626;-72
2023/05/09 10:01:04;;;;;;;47.38;27.02;;;;;;;;;;5129453;27;20042;-72
2023/05/09 10:03:41;;;;;;;53.85;29.83;;;;;;;;;;5111827;28;20051;-72
2023/05/09 10:06:11;;;;;;;53.05;29.83;;;;;;;;;;5129134;27;20051;-72
2023/05/09 10:08:37;;;;;;;56.90;30.20;;;;;;;;;;5130696;27;20126;-71
2023/05/09 10:11:04;;;;;;;54.78;29.75;;;;;;;;;;5141591;27;20603;-72
2023/05/09 10:13:30;;;;;;;54.03;30.92;;;;;;;;;;5112516;28;20617;-73
2023/05/09 10:15:57;;;;;;;52.75;28.52;;;;;;;;;;5112603;28;20086;-75
2023/05/09 10:18:28;;;;;;;54.10;28.65;;;;;;;;;;5112263;28;20039;-71
2023/05/09 10:20:54;;;;;;;54.47;30.35;;;;;;;;;;5129874;28;20043;-72
2023/05/09 10:23:20;;;;;;;57.20;28.17;;;;;;;;;;5111484;28;20078;-73
2023/05/09 10:25:51;;;;;;;55.20;29.10;;;;;;;;;;5112539;28;20292;-77
2023/05/09 10:28:24;;;;;;;51.50;27.77;;;;;;;;;;5130412;27;20054;-72
2023/05/09 10:30:55;;;;;;;60.17;28.55;;;;;;;;;;5112364;28;20122;-73
2023/05/09 10:33:23;;;;;;;56.88;30.10;;;;;;;;;;5111682;28;20083;-72
2023/05/09 10:35:50;;;;;;;57.65;30.40;;;;;;;;;;5126374;27;20047;-73
2023/05/09 10:38:16;;;;;;;57.58;30.33;;;;;;;;;;5130001;27;20047;-72
2023/05/09 10:40:43;;;;;;;65.47;32.10;;;;;;;;;;5129856;27;20072;-73
2023/05/09 10:43:09;;;;;;;59.15;29.95;;;;;;;;;;5108850;27;20162;-72
2023/05/09 10:45:35;;;;;;;;;;;;;;;;;;5130567;28;20043;-73
2023/05/09 10:48:03;;;;;;;61.55;31.80;;;;;;;;;;5110968;27;19923;-73
2023/05/09 10:50:29;;;;;;;66.57;31.10;;;;;;;;;;5132416;27;20047;-72
2023/05/09 10:53:10;;;;;;;60.33;29.63;;;;;;;;;;5114193;27;20046;-72
2023/05/09 10:55:52;;;;;;;56.38;30.00;;;;;;;;;;5140409;27;20047;-70
2023/05/09 10:58:28;;;;;;;57.72;30.52;;;;;;;;;;5139084;27;20042;-71
2023/05/09 11:00:56;;;;;;;63.40;32.47;;;;;;;;;;5136598;27;20082;-71
2023/05/09 11:03:23;;;;;;;55.45;30.05;;;;;;;;;;5132327;27;20047;-71
2023/05/09 11:05:51;;;;;;;65.10;31.35;;;;;;;;;;5132456;27;20684;-71
2023/05/09 11:08:21;;;;;;;72.50;32.80;;;;;;;;;;5114960;27;20047;-72
2023/05/09 11:10:47;;;;;;;67.05;32.30;;;;;;;;;;5115351;27;20408;-71
2023/05/09 11:13:17;;;;;;;69.38;33.28;;;;;;;;;;5131638;27;20858;-70
2023/05/09 11:16:10;;;;;;;70.15;33.65;;;;;;;;;;5112800;27;20092;-71
2023/05/09 11:18:49;;;;;;;73.47;35.80;;;;;;;;;;5137756;27;20130;-71
2023/05/09 11:21:15;;;;;;;78.93;35.78;;;;;;;;;;5141407;27;20050;-72
2023/05/09 11:23:42;;;;;;;73.38;36.15;;;;;;;;;;5132104;27;20047;-70
2023/05/09 11:26:08;;;;;;;73.43;36.65;;;;;;;;;;5131787;27;20082;-72
2023/05/09 11:28:36;;;;;;;73.65;35.70;;;;;;;;;;5115778;27;20043;-70
2023/05/09 11:31:09;;;;;;;65.57;34.22;;;;;;;;;;5117457;27;20040;-69
2023/05/09 11:33:36;;;;;;;75.50;36.20;;;;;;;;;;5124134;27;20466;-69
2023/05/09 11:36:14;;;;;;;71.40;34.17;;;;;;;;;;5131990;27;20082;-70
2023/05/09 11:38:44;;;;;;;72.43;35.00;;;;;;;;;;5132801;27;20039;-69
2023/05/09 11:41:10;;;;;;;71.30;36.10;;;;;;;;;;5133812;27;20495;-69
2023/05/09 11:43:37;;;;;;;77.90;37.88;;;;;;;;;;5086958;27;20050;-69
2023/05/09 11:46:04;;;;;;;76.97;35.90;;;;;;;;;;5143804;27;20083;-70
2023/05/09 11:48:30;;;;;;;79.53;38.72;;;;;;;;;;5119040;27;20162;-69
2023/05/09 11:50:56;;;;;;;82.72;40.60;;;;;;;;;;5131309;27;20387;-69
2023/05/09 11:53:22;;;;;;;87.78;42.53;;;;;;;;;;5132831;27;20100;-68
2023/05/09 11:55:49;;;;;;;100.60;45.50;;;;;;;;;;5133353;27;20091;-67
2023/05/09 11:58:15;;;;;;;98.15;44.08;;;;;;;;;;5130894;27;20110;-68
2023/05/09 12:00:45;;;;;;;81.15;41.78;;;;;;;;;;5132328;27;20050;-68
2023/05/09 12:03:11;;;;;;;82.85;40.25;;;;;;;;;;5131461;27;20058;-69
2023/05/09 12:05:41;;;;;;;86.65;40.05;;;;;;;;;;5114016;27;20082;-69
2023/05/09 12:08:11;;;;;;;95.90;43.35;;;;;;;;;;5131758;27;20527;-68
2023/05/09 12:10:38;;;;;;;105.38;44.40;;;;;;;;;;5122153;27;20043;-69
2023/05/09 12:13:04;;;;;;;103.70;44.97;;;;;;;;;;5130493;27;20043;-69
2023/05/09 12:15:30;;;;;;;;;;;;;;;;;;5132619;27;20050;-69
2023/05/09 12:18:03;;;;;;;100.88;43.13;;;;;;;;;;5131499;27;20010;-69
2023/05/09 12:20:50;;;;;;;106.70;45.10;;;;;;;;;;5130971;27;20127;-69
2023/05/09 12:23:16;;;;;;;97.03;43.80;;;;;;;;;;5110508;27;20046;-70
2023/05/09 12:25:55;;;;;;;101.80;45.15;;;;;;;;;;5131690;27;20047;-69
2023/05/09 12:28:25;;;;;;;101.45;44.50;;;;;;;;;;5110616;27;20386;-70
2023/05/09 12:30:52;;;;;;;102.28;45.45;;;;;;;;;;5131575;27;20043;-69
2023/05/09 12:33:18;;;;;;;96.60;45.05;;;;;;;;;;5128311;27;20065;-69
2023/05/09 12:35:48;;;;;;;96.78;44.42;;;;;;;;;;5130320;27;20795;-69
2023/05/09 12:38:15;;;;;;;91.63;44.65;;;;;;;;;;5125744;27;20050;-67
2023/05/09 12:40:43;;;;;;;88.80;44.10;;;;;;;;;;5121672;27;20075;-68
2023/05/09 12:43:09;;;;;;;89.30;43.13;;;;;;;;;;5118496;27;20050;-68
2023/05/09 12:45:35;;;;;;;84.78;42.65;;;;;;;;;;5120605;27;20054;-68
2023/05/09 12:48:04;;;;;;;87.78;43.55;;;;;;;;;;5126785;27;20064;-70
2023/05/09 12:50:33;;;;;;;84.95;43.75;;;;;;;;;;5130965;27;20076;-73
2023/05/09 12:53:00;;;;;;;82.80;43.08;;;;;;;;;;5113969;27;20060;-73
2023/05/09 12:55:27;;;;;;;74.82;41.30;;;;;;;;;;5124821;27;20118;-73
2023/05/09 12:57:57;;;;;;;74.35;41.67;;;;;;;;;;5117518;27;20054;-72
2023/05/09 13:00:23;;;;;;;73.35;39.42;;;;;;;;;;5098479;27;20042;-73
2023/05/09 13:02:51;;;;;;;78.15;41.90;;;;;;;;;;5107481;27;20075;-72
2023/05/09 13:05:19;;;;;;;79.22;43.45;;;;;;;;;;5115132;27;20115;-72
2023/05/09 13:07:46;;;;;;;71.30;39.33;;;;;;;;;;5121826;27;20514;-72
2023/05/09 13:10:20;;;;;;;80.53;42.97;;;;;;;;;;5098710;27;20063;-71
2023/05/09 13:12:47;;;;;;;69.47;39.40;;;;;;;;;;5122826;27;20483;-71
2023/05/09 13:15:20;;;;;;;75.75;40.50;;;;;;;;;;5125208;27;20059;-71
2023/05/09 13:17:49;;;;;;;81.28;40.70;;;;;;;;;;5104973;27;20145;-72
2023/05/09 13:20:16;;;;;;;69.22;40.17;;;;;;;;;;5105071;27;20051;-72
2023/05/09 13:22:43;;;;;;;68.88;40.42;;;;;;;;;;5130032;27;20599;-72
2023/05/09 13:25:10;;;;;;;72.95;39.78;;;;;;;;;;5104006;27;20044;-75
2023/05/09 13:27:36;;;;;;;71.25;41.50;;;;;;;;;;5118703;27;20035;-71
2023/05/09 13:30:02;;;;;;;73.10;41.95;;;;;;;;;;5114732;27;20054;-72
2023/05/09 13:32:28;;;;;;;70.15;41.05;;;;;;;;;;5138357;27;20066;-70
2023/05/09 13:34:56;;;;;;;60.38;39.25;;;;;;;;;;5143365;27;20043;-71
2023/05/09 13:37:22;;;;;;;57.58;37.17;;;;;;;;;;5138790;27;20127;-72
2023/05/09 13:39:48;;;;;;;63.20;40.13;;;;;;;;;;5148313;27;20530;-68
2023/05/09 13:42:14;;;;;;;67.97;41.63;;;;;;;;;;5115118;27;20050;-69
2023/05/09 13:44:41;;;;;;;68.15;40.85;;;;;;;;;;5151741;27;20527;-69
2023/05/09 13:47:07;;;;;;;69.28;41.20;;;;;;;;;;5151885;27;20138;-70
2023/05/09 13:49:33;;;;;;;72.15;42.38;;;;;;;;;;5144237;27;20219;-69
2023/05/09 13:52:00;;;;;;;67.53;41.00;;;;;;;;;;5151729;27;20047;-69
2023/05/09 13:54:28;;;;;;;65.93;42.30;;;;;;;;;;5133153;27;20055;-69
2023/05/09 13:56:54;;;;;;;46.47;29.20;;;;;;;;;;5112943;27;20062;-69
2023/05/09 13:59:20;;;;;;;27.42;20.17;;;;;;;;;;5151689;27;20121;-69
2023/05/09 14:01:46;;;;;;;;;;;;;;;;;;5152541;27;20035;-70
2023/05/09 14:04:12;;;;;;;32.35;19.58;;;;;;;;;;5143771;27;19971;-74
2023/05/09 14:06:38;;;;;;;;;;;;;;;;;;5131140;28;20047;-70
2023/05/09 14:09:06;;;;;;;30.40;20.08;;;;;;;;;;5096481;28;19965;-70
2023/05/09 14:11:32;;;;;;;30.65;20.70;;;;;;;;;;5130244;28;20043;-70
2023/05/09 14:13:58;;;;;;;26.73;19.80;;;;;;;;;;5130143;28;20119;-70
2023/05/09 14:16:24;;;;;;;29.90;20.90;;;;;;;;;;5111932;28;20538;-69
2023/05/09 14:18:51;;;;;;;30.45;20.55;;;;;;;;;;5130471;28;20563;-70
2023/05/09 14:21:17;;;;;;;30.98;20.27;;;;;;;;;;5113175;27;20047;-71
2023/05/09 14:23:43;;;;;;;32.47;20.95;;;;;;;;;;5116112;27;20051;-71
2023/05/09 14:26:09;;;;;;;27.17;20.02;;;;;;;;;;5116632;27;20034;-71
2023/05/09 14:28:37;;;;;;;;;;;;;;;;;;5134041;27;20121;-71
2023/05/09 14:31:03;;;;;;;28.70;19.30;;;;;;;;;;5134398;27;20010;-69
2023/05/09 14:33:29;;;;;;;30.48;21.40;;;;;;;;;;5132382;27;20055;-68
2023/05/09 14:35:55;;;;;;;28.02;20.73;;;;;;;;;;5141216;27;20111;-69
2023/05/09 14:38:21;;;;;;;28.08;20.55;;;;;;;;;;5120708;27;20054;-67
2023/05/09 14:40:48;;;;;;;33.95;22.35;;;;;;;;;;5143933;27;20059;-66